Time;durP1;ratioP1;P1;durP2;ratioP2;P2;SDS_P1;SDS_P2;PMS_P1;PMS_P2;Temp;Humidity;BMP_temperature;BMP_pressure;BME280_temperature;BME280_humidity;BME280_pressure;Samples;Min_cycle;Max_cycle;Signal;HPM_P1;HPM_P2
2022/08/05 00:02:07;;;;;;;1999.90;999.90;;;21.60;99.60;;;;;;5014001;28;20084;-74
2022/08/05 00:04:33;;;;;;;1999.90;999.90;;;21.60;99.60;;;;;;5013898;28;20030;-74
2022/08/05 00:06:59;;;;;;;1999.90;999.90;;;21.50;99.70;;;;;;5013845;28;20054;-68
2022/08/05 00:09:24;;;;;;;1999.90;999.90;;;21.50;99.80;;;;;;5013117;28;20026;-74
2022/08/05 00:11:50;;;;;;;1999.90;999.90;;;21.40;99.90;;;;;;5013508;28;20031;-74
2022/08/05 00:14:17;;;;;;;1999.90;999.90;;;21.40;99.90;;;;;;5013479;28;20085;-74
2022/08/05 00:16:46;;;;;;;1999.90;999.90;;;21.40;99.90;;;;;;5013654;28;20374;-68
2022/08/05 00:19:11;;;;;;;1999.90;999.90;;;21.40;99.90;;;;;;5013431;28;20044;-74
2022/08/05 00:21:37;;;;;;;1999.90;999.90;;;21.40;99.90;;;;;;5013438;28;20488;-68
2022/08/05 00:24:03;;;;;;;1999.90;999.90;;;21.30;99.90;;;;;;5013396;28;20026;-74
2022/08/05 00:26:29;;;;;;;1999.90;999.90;;;21.30;99.90;;;;;;5013441;28;20026;-74
2022/08/05 00:28:54;;;;;;;1999.90;999.90;;;21.20;99.90;;;;;;5013322;28;20220;-74
2022/08/05 00:31:20;;;;;;;1999.90;999.90;;;21.20;99.90;;;;;;5013034;28;20053;-75
2022/08/05 00:33:45;;;;;;;1999.90;999.90;;;21.20;99.90;;;;;;4995046;28;20101;-73
2022/08/05 00:36:12;;;;;;;1999.90;999.90;;;21.20;99.90;;;;;;4993732;28;20058;-68
2022/08/05 00:38:38;;;;;;;1999.90;999.90;;;21.10;99.90;;;;;;5003621;28;20018;-74
2022/08/05 00:41:06;;;;;;;1999.90;999.90;;;21.00;99.90;;;;;;5013389;28;20038;-68
2022/08/05 00:43:33;;;;;;;1999.90;999.90;;;21.00;99.90;;;;;;5013347;28;20014;-68
2022/08/05 00:45:59;;;;;;;1999.90;999.90;;;20.90;99.90;;;;;;5013489;28;20021;-74
2022/08/05 00:48:25;;;;;;;1999.90;999.90;;;20.80;99.90;;;;;;5013516;28;20052;-74
2022/08/05 00:50:51;;;;;;;1999.90;999.90;;;20.70;99.90;;;;;;5013227;28;20030;-74
2022/08/05 00:53:20;;;;;;;1999.90;999.90;;;20.70;99.90;;;;;;5012966;28;20057;-68
2022/08/05 00:55:45;;;;;;;1999.90;999.90;;;20.60;99.90;;;;;;5012885;28;20109;-68
2022/08/05 00:58:13;;;;;;;1999.90;999.90;;;20.60;99.90;;;;;;5012927;28;20072;-68
2022/08/05 01:00:40;;;;;;;1999.90;999.90;;;20.50;99.90;;;;;;5013024;28;20477;-74
2022/08/05 01:03:06;;;;;;;1999.90;999.90;;;20.50;99.90;;;;;;5013152;28;20015;-74
2022/08/05 01:05:31;;;;;;;1999.90;999.90;;;20.40;99.90;;;;;;5013137;28;20026;-74
2022/08/05 01:07:57;;;;;;;1999.90;999.90;;;20.30;99.90;;;;;;5013229;28;20072;-68
2022/08/05 01:10:29;;;;;;;1999.90;999.90;;;20.30;99.90;;;;;;5012621;28;20058;-68
2022/08/05 01:13:02;;;;;;;1999.90;999.90;;;20.20;99.90;;;;;;5012529;28;20034;-74
2022/08/05 01:15:33;;;;;;;1999.90;999.90;;;20.20;99.90;;;;;;5012308;28;20485;-68
2022/08/05 01:18:11;;;;;;;1999.90;999.90;;;20.10;99.90;;;;;;5012153;28;20057;-74
2022/08/05 01:21:11;;;;;;;1999.90;999.90;;;20.10;99.90;;;;;;5012743;28;20101;-74
2022/08/05 01:23:55;;;;;;;1999.90;999.90;;;20.00;99.90;;;;;;5012952;28;20072;-69
2022/08/05 01:26:34;;;;;;;1999.90;999.90;;;20.00;99.90;;;;;;5012842;28;20081;-74
2022/08/05 01:29:22;;;;;;;1999.90;999.90;;;19.90;99.90;;;;;;5012329;28;20069;-74
2022/08/05 01:31:51;;;;;;;1999.90;999.90;;;19.90;99.90;;;;;;5011897;28;20042;-74
2022/08/05 01:34:53;;;;;;;1999.90;999.90;;;19.80;99.90;;;;;;5012739;28;20113;-69
2022/08/05 01:37:25;;;;;;;1999.90;999.90;;;19.70;99.90;;;;;;5013070;28;20034;-77
2022/08/05 01:39:55;;;;;;;1999.90;999.90;;;19.70;99.90;;;;;;5012409;28;20061;-76
2022/08/05 01:42:24;;;;;;;1999.90;999.90;;;19.60;99.90;;;;;;5012490;28;20401;-76
2022/08/05 01:44:50;;;;;;;1999.90;999.90;;;19.60;99.90;;;;;;5012743;28;20044;-76
2022/08/05 01:47:18;;;;;;;1999.90;999.90;;;19.50;99.90;;;;;;5012775;28;20076;-70
2022/08/05 01:49:46;;;;;;;1999.90;999.90;;;19.50;99.90;;;;;;5012644;28;20069;-76
2022/08/05 01:52:13;;;;;;;1999.90;999.90;;;19.50;99.90;;;;;;5012657;28;20117;-70
2022/08/05 01:54:43;;;;;;;1999.90;999.90;;;19.40;99.90;;;;;;5012794;28;20017;-77
2022/08/05 01:57:11;;;;;;;1999.90;999.90;;;19.40;99.90;;;;;;5012251;28;20563;-68
2022/08/05 01:59:39;;;;;;;1999.90;999.90;;;19.40;99.90;;;;;;5012330;28;20028;-68
2022/08/05 02:02:06;;;;;;;1999.90;999.90;;;19.40;99.90;;;;;;5011916;28;20429;-68
2022/08/05 02:04:35;;;;;;;1999.90;999.90;;;19.40;99.90;;;;;;5012316;28;20389;-74
2022/08/05 02:07:01;;;;;;;1999.90;999.90;;;19.30;99.90;;;;;;5012533;28;20113;-74
2022/08/05 02:09:27;;;;;;;1999.90;999.90;;;19.30;99.90;;;;;;5013284;28;20026;-74
2022/08/05 02:12:06;;;;;;;1999.90;999.90;;;19.30;99.90;;;;;;4996165;28;20030;-74
2022/08/05 02:14:55;;;;;;;1999.90;999.90;;;19.20;99.90;;;;;;4996745;28;20482;-74
2022/08/05 02:17:32;;;;;;;1999.90;999.90;;;19.20;99.90;;;;;;4995987;28;20073;-73
2022/08/05 02:20:04;;;;;;;1999.90;999.90;;;19.10;99.90;;;;;;4996299;28;20030;-74
2022/08/05 02:22:38;;;;;;;1999.90;999.90;;;19.10;99.90;;;;;;4995931;28;20018;-74
2022/08/05 02:25:11;;;;;;;1999.90;999.90;;;19.10;99.90;;;;;;4996126;28;20032;-68
2022/08/05 02:27:39;;;;;;;1999.90;999.90;;;19.10;99.90;;;;;;4995727;28;20465;-68
2022/08/05 02:30:07;;;;;;;1999.90;999.90;;;19.00;99.90;;;;;;4996142;28;20113;-74
2022/08/05 02:32:34;;;;;;;1999.90;999.90;;;19.00;99.90;;;;;;4996046;28;20027;-74
2022/08/05 02:35:04;;;;;;;1999.90;999.90;;;18.90;99.90;;;;;;4995992;28;20022;-73
2022/08/05 02:37:32;;;;;;;1999.90;999.90;;;18.90;99.90;;;;;;4995955;28;20045;-73
2022/08/05 02:40:00;;;;;;;1999.90;999.90;;;19.00;99.90;;;;;;5015597;28;20113;-69
2022/08/05 02:42:26;;;;;;;1999.90;999.90;;;18.90;99.90;;;;;;5015105;28;20076;-74
2022/08/05 02:44:53;;;;;;;1999.90;999.90;;;18.90;99.90;;;;;;5015381;28;20029;-74
2022/08/05 02:47:20;;;;;;;1999.90;999.90;;;18.80;99.90;;;;;;5015276;28;20031;-68
2022/08/05 02:49:46;;;;;;;1999.90;999.90;;;18.80;99.90;;;;;;5015708;28;20026;-74
2022/08/05 02:52:19;;;;;;;1999.90;999.90;;;18.80;99.90;;;;;;5015119;28;20046;-74
2022/08/05 02:54:46;;;;;;;1999.90;999.90;;;18.80;99.90;;;;;;5015348;28;20034;-74
2022/08/05 02:57:17;;;;;;;1999.90;999.90;;;18.70;99.90;;;;;;5014941;28;20540;-74
2022/08/05 02:59:48;;;;;;;1999.90;999.90;;;18.70;99.90;;;;;;5015071;28;20022;-69
2022/08/05 03:02:18;;;;;;;1999.90;999.90;;;18.60;99.90;;;;;;5015035;28;20022;-74
2022/08/05 03:04:45;;;;;;;1999.90;999.90;;;18.60;99.90;;;;;;4995446;28;20109;-68
2022/08/05 03:07:12;;;;;;;1999.90;999.90;;;18.60;99.90;;;;;;4995422;28;20486;-68
2022/08/05 03:09:40;;;;;;;1999.90;999.90;;;18.60;99.90;;;;;;4995045;28;20429;-74
2022/08/05 03:12:07;;;;;;;1999.90;999.90;;;18.60;99.90;;;;;;4994154;28;20057;-73
2022/08/05 03:14:33;;;;;;;1999.90;999.90;;;18.50;99.90;;;;;;4995415;28;20022;-74
2022/08/05 03:16:59;;;;;;;1999.90;999.90;;;18.60;99.90;;;;;;4995205;28;20019;-68
2022/08/05 03:19:25;;;;;;;1999.90;999.90;;;18.50;99.90;;;;;;4994360;28;20031;-74
2022/08/05 03:21:50;;;;;;;1999.90;999.90;;;18.60;99.90;;;;;;4995011;28;20037;-73
2022/08/05 03:24:19;;;;;;;1999.90;999.90;;;18.50;99.90;;;;;;4994885;28;20045;-73
2022/08/05 03:26:45;;;;;;;1999.90;999.90;;;18.50;99.90;;;;;;4995218;28;20457;-74
2022/08/05 03:29:11;;;;;;;1999.90;999.90;;;18.50;99.90;;;;;;4995037;28;20379;-73
2022/08/05 03:31:37;;;;;;;1999.90;999.90;;;18.40;99.90;;;;;;4995146;28;20034;-74
2022/08/05 03:34:03;;;;;;;1999.90;999.90;;;18.40;99.90;;;;;;4994734;28;20041;-73
2022/08/05 03:36:30;;;;;;;1999.90;999.90;;;18.40;99.90;;;;;;4995067;28;20030;-74
2022/08/05 03:38:56;;;;;;;1999.90;999.90;;;18.40;99.90;;;;;;5006365;28;20393;-74
2022/08/05 03:41:22;;;;;;;1999.90;999.90;;;18.40;99.90;;;;;;5014106;28;20108;-74
2022/08/05 03:43:48;;;;;;;1999.90;999.90;;;18.30;99.90;;;;;;5014339;28;20497;-74
2022/08/05 03:46:13;;;;;;;1999.90;999.90;;;18.30;99.90;;;;;;5014432;28;20017;-68
2022/08/05 03:48:39;;;;;;;1999.90;999.90;;;18.30;99.90;;;;;;5013961;28;20030;-73
2022/08/05 03:51:27;;;;;;;1999.90;999.90;;;18.30;99.90;;;;;;5014268;28;20064;-68
2022/08/05 03:54:11;;;;;;;1999.90;999.90;;;18.30;99.90;;;;;;5014099;28;20045;-74
2022/08/05 03:56:39;;;;;;;1999.90;999.90;;;18.30;99.90;;;;;;5013934;28;20026;-68
2022/08/05 03:59:28;;;;;;;1999.90;999.90;;;18.20;99.90;;;;;;5014255;28;20117;-74
2022/08/05 04:01:56;;;;;;;1999.90;999.90;;;18.20;99.90;;;;;;5013705;28;20033;-74
2022/08/05 04:04:23;;;;;;;1999.90;999.90;;;18.20;99.90;;;;;;5013668;28;20030;-74
2022/08/05 04:06:49;;;;;;;1999.90;999.90;;;18.20;99.90;;;;;;5013889;28;20029;-74
2022/08/05 04:09:16;;;;;;;1999.90;999.90;;;18.20;99.90;;;;;;5013790;28;20101;-68
2022/08/05 04:11:42;;;;;;;1999.90;999.90;;;18.10;99.90;;;;;;4993872;28;20022;-68
2022/08/05 04:14:08;;;;;;;1999.90;999.90;;;18.10;99.90;;;;;;4993732;28;20042;-68
2022/08/05 04:16:34;;;;;;;1999.90;999.90;;;18.10;99.90;;;;;;4994132;28;20027;-74
2022/08/05 04:19:00;;;;;;;1999.90;999.90;;;18.10;99.90;;;;;;4993751;28;20030;-74
2022/08/05 04:21:26;;;;;;;1999.90;999.90;;;18.10;99.90;;;;;;4993944;28;20030;-68
2022/08/05 04:23:52;;;;;;;1999.90;999.90;;;18.10;99.90;;;;;;4993837;28;20031;-68
2022/08/05 04:26:18;;;;;;;1999.90;999.90;;;18.00;99.90;;;;;;4994213;28;20413;-69
2022/08/05 04:28:44;;;;;;;1999.90;999.90;;;18.10;99.90;;;;;;4993921;28;20098;-74
2022/08/05 04:31:10;;;;;;;1999.90;999.90;;;18.00;99.90;;;;;;4991795;28;20109;-73
2022/08/05 04:33:35;;;;;;;1999.90;999.90;;;18.00;99.90;;;;;;4993842;28;20034;-74
2022/08/05 04:36:01;;;;;;;1999.90;999.90;;;18.00;99.90;;;;;;4993589;28;20096;-68
2022/08/05 04:38:26;;;;;;;1999.90;999.90;;;18.00;99.90;;;;;;5001847;28;20033;-69
2022/08/05 04:40:52;;;;;;;1999.90;999.90;;;18.00;99.90;;;;;;5013347;28;20117;-74
2022/08/05 04:43:18;;;;;;;1999.90;999.90;;;18.00;99.90;;;;;;5013028;28;20109;-74
2022/08/05 04:45:43;;;;;;;1999.90;999.90;;;17.90;99.90;;;;;;5013634;28;20049;-68
2022/08/05 04:48:11;;;;;;;1999.90;999.90;;;17.90;99.90;;;;;;5013278;28;20022;-69
2022/08/05 04:50:42;;;;;;;1999.90;999.90;;;17.90;99.90;;;;;;5013420;28;20432;-68
2022/08/05 04:53:09;;;;;;;1999.90;999.90;;;17.90;99.90;;;;;;5012988;28;20061;-74
2022/08/05 04:55:36;;;;;;;1999.90;999.90;;;17.90;99.90;;;;;;5013515;28;20386;-68
2022/08/05 04:58:04;;;;;;;1999.90;999.90;;;17.90;99.90;;;;;;5013093;28;20485;-74
2022/08/05 05:00:30;;;;;;;1999.90;999.90;;;17.90;99.90;;;;;;5013115;28;20018;-74
2022/08/05 05:02:56;;;;;;;1999.90;999.90;;;17.90;99.90;;;;;;5013379;28;20116;-68
2022/08/05 05:05:22;;;;;;;1999.90;999.90;;;17.90;99.90;;;;;;5013155;28;20098;-74
2022/08/05 05:07:47;;;;;;;1999.90;999.90;;;17.90;99.90;;;;;;5013454;28;20041;-74
2022/08/05 05:10:13;;;;;;;1999.90;999.90;;;17.90;99.90;;;;;;5005796;28;20489;-73
2022/08/05 05:12:38;;;;;;;1999.90;999.90;;;17.90;99.90;;;;;;4993264;28;20027;-74
2022/08/05 05:15:05;;;;;;;1999.90;999.90;;;17.90;99.90;;;;;;4993578;28;20497;-74
2022/08/05 05:17:45;;;;;;;1999.90;999.90;;;17.90;99.90;;;;;;4993133;28;20026;-74
2022/08/05 05:20:12;;;;;;;1999.90;999.90;;;17.90;99.90;;;;;;4993148;28;20039;-74
2022/08/05 05:22:37;;;;;;;1999.90;999.90;;;17.90;99.90;;;;;;4993121;28;20375;-68
2022/08/05 05:25:04;;;;;;;1999.90;999.90;;;18.00;99.90;;;;;;4993537;28;20041;-74
2022/08/05 05:27:31;;;;;;;1999.90;999.90;;;18.00;99.90;;;;;;4993216;28;20548;-68
2022/08/05 05:29:57;;;;;;;1999.90;999.90;;;18.00;99.90;;;;;;4992461;28;20128;-74
2022/08/05 05:32:23;;;;;;;1999.90;999.90;;;18.10;99.90;;;;;;4993273;28;20026;-74
2022/08/05 05:34:48;;;;;;;1999.90;999.90;;;18.10;99.90;;;;;;4992994;28;20069;-68
2022/08/05 05:37:14;;;;;;;1999.90;999.90;;;18.20;99.90;;;;;;5010868;28;20168;-68
2022/08/05 05:39:41;;;;;;;1999.90;999.90;;;18.20;99.90;;;;;;4995494;28;20018;-74
2022/08/05 05:42:06;;;;;;;1999.90;999.90;;;18.20;99.90;;;;;;4994125;28;20521;-68
2022/08/05 05:44:32;;;;;;;1999.90;999.90;;;18.20;99.90;;;;;;4996876;28;20027;-68
2022/08/05 05:46:59;;;;;;;1999.90;999.90;;;18.10;99.90;;;;;;4996936;28;20070;-74
2022/08/05 05:49:25;;;;;;;1999.90;999.90;;;18.10;99.90;;;;;;4996576;28;20038;-74
2022/08/05 05:51:51;;;;;;;1999.90;999.90;;;18.20;99.90;;;;;;4996684;28;20096;-74
2022/08/05 05:54:17;;;;;;;1999.90;999.90;;;18.20;99.90;;;;;;4996455;28;20038;-68
2022/08/05 05:56:42;;;;;;;1999.90;999.90;;;18.30;99.90;;;;;;4996742;28;20023;-68
2022/08/05 05:59:08;;;;;;;1999.90;999.90;;;18.20;99.90;;;;;;4996781;28;20045;-68
2022/08/05 06:01:36;;;;;;;1999.90;999.90;;;18.30;99.90;;;;;;4996591;28;20034;-68
2022/08/05 06:04:01;;;;;;;1999.90;999.90;;;18.30;99.90;;;;;;5010631;28;20029;-74
2022/08/05 06:06:27;;;;;;;1999.90;999.90;;;18.30;99.90;;;;;;5015986;28;20393;-68
2022/08/05 06:08:53;;;;;;;1999.90;999.90;;;18.40;99.90;;;;;;5016040;28;20026;-68
2022/08/05 06:11:19;;;;;;;1999.90;999.90;;;18.40;99.90;;;;;;4999289;28;20030;-74
2022/08/05 06:13:44;;;;;;;1999.90;999.90;;;18.40;99.90;;;;;;4996627;28;20441;-74
2022/08/05 06:16:10;;;;;;;1999.90;999.90;;;18.40;99.90;;;;;;4996477;28;20541;-74
2022/08/05 06:18:36;;;;;;;1999.90;999.90;;;18.40;99.90;;;;;;4995731;28;20042;-69
2022/08/05 06:21:02;;;;;;;1999.90;999.90;;;18.40;99.90;;;;;;4996319;28;20030;-68
2022/08/05 06:23:28;;;;;;;1999.90;999.90;;;18.50;99.90;;;;;;4994892;28;20030;-68
2022/08/05 06:25:54;;;;;;;1999.90;999.90;;;18.50;99.90;;;;;;4996429;28;20419;-74
2022/08/05 06:28:19;;;;;;;1999.90;999.90;;;18.50;99.90;;;;;;4995684;28;20027;-74
2022/08/05 06:30:45;;;;;;;1999.90;999.90;;;18.60;99.90;;;;;;4995587;28;20022;-74
2022/08/05 06:33:11;;;;;;;1999.90;999.90;;;18.50;99.90;;;;;;4995937;28;20030;-68
2022/08/05 06:35:37;;;;;;;1999.90;999.90;;;18.60;99.90;;;;;;4995587;28;20026;-71
2022/08/05 06:38:02;;;;;;;1999.90;999.90;;;18.60;99.90;;;;;;5000717;28;20498;-77
2022/08/05 06:40:28;;;;;;;1999.90;999.90;;;18.60;99.90;;;;;;5015433;28;20038;-75
2022/08/05 06:42:54;;;;;;;1999.90;999.90;;;18.70;99.90;;;;;;5015348;28;20500;-74
2022/08/05 06:45:20;;;;;;;1999.90;999.90;;;18.60;99.90;;;;;;5015405;28;20022;-68
2022/08/05 06:47:46;;;;;;;1999.90;999.90;;;18.70;99.90;;;;;;5015419;28;20022;-69
2022/08/05 06:50:12;;;;;;;1999.90;999.90;;;18.70;99.90;;;;;;5014043;28;20040;-75
2022/08/05 06:52:37;;;;;;;1999.90;999.90;;;18.80;99.90;;;;;;5015093;28;20137;-69
2022/08/05 06:55:04;;;;;;;1999.90;999.90;;;18.80;99.90;;;;;;5014111;28;20033;-75
2022/08/05 06:57:30;;;;;;;1999.90;999.90;;;18.80;99.90;;;;;;5012380;28;20506;-75
2022/08/05 06:59:55;;;;;;;1999.90;999.90;;;19.00;99.90;;;;;;5013412;28;21190;-69
2022/08/05 07:02:21;;;;;;;1999.90;999.90;;;19.20;99.90;;;;;;5014280;28;20021;-69
2022/08/05 07:04:47;;;;;;;1999.90;999.90;;;19.40;99.90;;;;;;5013195;28;20100;-74
2022/08/05 07:07:12;;;;;;;1999.90;999.90;;;19.50;99.90;;;;;;5013611;28;20034;-69
2022/08/05 07:09:38;;;;;;;1999.90;999.90;;;19.70;99.90;;;;;;5012436;28;20093;-75
2022/08/05 07:12:04;;;;;;;1999.90;999.90;;;19.90;99.90;;;;;;5008786;28;20034;-69
2022/08/05 07:17:14;;;;;;;1999.90;999.90;;;20.40;99.90;;;;;;5012511;28;20041;-73
2022/08/05 07:19:39;;;;;;;1999.90;999.90;;;20.70;99.90;;;;;;5012833;28;20429;-75
2022/08/05 07:22:05;;;;;;;1999.90;999.90;;;20.70;99.80;;;;;;5013000;28;20038;-69
2022/08/05 07:24:31;;;;;;;1999.90;999.90;;;20.60;99.20;;;;;;5010865;28;20022;-69
2022/08/05 07:26:56;;;;;;;1999.90;999.90;;;20.50;99.40;;;;;;5011637;28;20026;-69
2022/08/05 07:29:22;;;;;;;1999.90;999.90;;;20.60;99.10;;;;;;5013438;28;20025;-75
2022/08/05 07:31:47;;;;;;;1999.90;999.90;;;20.70;98.90;;;;;;5012255;28;20493;-68
2022/08/05 07:34:13;;;;;;;1999.90;999.90;;;20.70;98.40;;;;;;5013213;28;20108;-69
2022/08/05 07:36:39;;;;;;;1999.90;999.90;;;20.70;98.50;;;;;;5011607;28;20417;-75
2022/08/05 07:39:07;;;;;;;1999.90;999.90;;;20.80;98.20;;;;;;5012940;28;20062;-69
2022/08/05 07:41:35;;;;;;;1999.90;999.90;;;21.00;98.00;;;;;;5012811;28;20499;-69
2022/08/05 07:44:01;;;;;;;1999.90;999.90;;;21.20;97.50;;;;;;5014053;28;20022;-75
2022/08/05 07:46:29;;;;;;;1999.90;999.90;;;21.40;97.10;;;;;;5012512;28;20030;-74
2022/08/05 07:48:56;;;;;;;1999.90;999.90;;;21.50;96.60;;;;;;5013603;28;20014;-75
2022/08/05 07:51:22;;;;;;;1999.90;999.90;;;21.70;96.70;;;;;;5012218;28;20049;-69
2022/08/05 07:53:47;;;;;;;1999.90;999.90;;;21.90;95.90;;;;;;5013701;28;20037;-70
2022/08/05 07:56:13;;;;;;;1999.90;999.90;;;22.60;95.40;;;;;;5013075;28;20036;-75
2022/08/05 07:58:39;;;;;;;1999.90;999.90;;;24.20;93.30;;;;;;5012697;28;20026;-76
2022/08/05 08:01:05;;;;;;;1999.90;999.90;;;25.30;91.30;;;;;;5013136;28;20030;-76
2022/08/05 08:03:31;;;;;;;1999.90;999.90;;;26.40;90.10;;;;;;5013345;28;20493;-69
2022/08/05 08:05:56;;;;;;;1999.90;999.90;;;27.40;88.40;;;;;;5011306;28;20033;-70
2022/08/05 08:08:22;;;;;;;1999.90;999.90;;;27.80;86.60;;;;;;5013417;28;20021;-70
2022/08/05 08:10:48;;;;;;;1999.90;999.90;;;27.90;85.50;;;;;;5010838;28;20034;-75
2022/08/05 08:13:13;;;;;;;1999.90;999.90;;;28.40;84.80;;;;;;5012057;28;20057;-76
2022/08/05 08:15:39;;;;;;;1999.90;999.90;;;28.30;83.80;;;;;;5012728;28;20069;-69
2022/08/05 08:18:05;;;;;;;1999.90;999.90;;;29.30;83.80;;;;;;5012470;28;20065;-69
2022/08/05 08:20:31;;;;;;;1999.90;999.90;;;29.60;82.20;;;;;;5011684;28;20564;-76
2022/08/05 08:22:58;;;;;;;1999.90;999.90;;;29.40;82.00;;;;;;5012240;28;20108;-70
2022/08/05 08:25:25;;;;;;;1999.90;999.90;;;30.00;81.50;;;;;;5012040;28;20030;-69
2022/08/05 08:27:50;;;;;;;1999.90;999.90;;;30.80;80.70;;;;;;5011668;28;20076;-76
2022/08/05 08:30:17;;;;;;;1999.90;999.90;;;31.60;80.10;;;;;;5011973;28;20029;-70
2022/08/05 08:32:42;;;;;;;1999.90;999.90;;;31.00;79.30;;;;;;5011607;28;20558;-69
2022/08/05 08:35:09;;;;;;;1999.90;999.90;;;31.60;78.00;;;;;;5008781;28;20042;-70
2022/08/05 08:37:34;;;;;;;1999.90;999.90;;;31.30;77.90;;;;;;5012068;28;20053;-76
2022/08/05 08:40:00;;;;;;;1999.90;999.90;;;30.60;77.20;;;;;;5011544;28;20069;-76
2022/08/05 08:42:26;;;;;;;1999.90;999.90;;;31.00;77.70;;;;;;5011444;28;20029;-70
2022/08/05 08:44:56;;;;;;;1999.90;999.90;;;31.40;77.40;;;;;;5009777;28;20029;-70
2022/08/05 08:47:24;;;;;;;1999.90;999.90;;;32.30;76.00;;;;;;5010898;28;20038;-70
2022/08/05 08:49:56;;;;;;;1999.90;999.90;;;32.30;76.10;;;;;;5012371;28;20100;-69
2022/08/05 08:52:29;;;;;;;1999.90;999.90;;;32.00;75.80;;;;;;5011657;28;20096;-77
2022/08/05 08:54:55;;;;;;;1999.90;999.90;;;31.70;75.50;;;;;;5012120;28;20046;-69
2022/08/05 08:57:21;;;;;;;1999.90;999.90;;;32.30;74.90;;;;;;5011252;28;20061;-69
2022/08/05 08:59:48;;;;;;;1999.90;999.90;;;33.00;74.50;;;;;;5011704;28;20025;-76
2022/08/05 09:02:14;;;;;;;1999.90;999.90;;;32.50;74.60;;;;;;5011121;28;20030;-78
2022/08/05 09:04:40;;;;;;;1999.90;999.90;;;32.50;74.20;;;;;;5010337;28;20116;-76
2022/08/05 09:07:07;;;;;;;1999.90;999.90;;;32.30;74.30;;;;;;5010090;28;20544;-79
2022/08/05 09:09:37;;;;;;;1999.90;999.90;;;32.70;74.60;;;;;;5015160;28;20026;-70
2022/08/05 09:12:04;;;;;;;1999.90;999.90;;;33.20;73.60;;;;;;5021142;28;20076;-67
2022/08/05 09:14:37;;;;;;;1999.90;999.90;;;32.70;73.10;;;;;;5011762;28;20049;-75
2022/08/05 09:17:05;;;;;;;1999.90;999.90;;;32.50;73.50;;;;;;5012540;28;20072;-67
2022/08/05 09:19:30;;;;;;;1999.90;999.90;;;33.10;73.60;;;;;;5015497;28;20083;-75
2022/08/05 09:21:56;;;;;;;1999.90;999.90;;;33.50;72.60;;;;;;5015393;28;20484;-68
2022/08/05 09:24:22;;;;;;;1999.90;999.90;;;33.30;72.60;;;;;;5016071;28;20021;-68
2022/08/05 09:26:52;;;;;;;1999.90;999.90;;;33.00;73.20;;;;;;5015310;28;20473;-74
2022/08/05 09:29:18;;;;;;;1999.90;999.90;;;33.20;72.70;;;;;;5014369;28;20431;-75
2022/08/05 09:32:00;;;;;;;1999.90;999.90;;;32.90;73.10;;;;;;5009118;28;20026;-75
2022/08/05 09:34:54;;;;;;;1999.90;999.90;;;33.00;73.10;;;;;;5013961;28;20054;-74
2022/08/05 09:37:25;;;;;;;1999.90;999.90;;;34.00;72.30;;;;;;5015880;28;20064;-68
2022/08/05 09:39:51;;;;;;;;;;;33.40;71.80;;;;;;5015495;28;20041;-68
2022/08/05 09:42:18;;;;;;;1999.90;999.90;;;34.40;71.80;;;;;;5014886;28;19991;-68
2022/08/05 09:44:46;;;;;;;1999.90;999.90;;;35.20;70.40;;;;;;5014839;28;20045;-74
2022/08/05 09:47:14;;;;;;;1999.90;999.90;;;35.10;70.30;;;;;;5012715;28;20033;-69
2022/08/05 09:49:46;;;;;;;1999.90;999.90;;;34.20;70.50;;;;;;5011826;28;20033;-68
2022/08/05 09:52:25;;;;;;;1999.90;999.90;;;34.00;71.00;;;;;;5015390;28;20504;-76
2022/08/05 09:54:52;;;;;;;1999.90;999.90;;;33.30;71.40;;;;;;5012901;28;20026;-75
2022/08/05 09:57:37;;;;;;;1999.90;999.90;;;33.40;73.60;;;;;;5013103;28;20404;-76
2022/08/05 10:00:10;;;;;;;1999.90;999.90;;;33.80;71.80;;;;;;5015230;28;20040;-70
2022/08/05 10:02:41;;;;;;;1999.90;999.90;;;34.40;70.60;;;;;;5012634;28;20527;-69
2022/08/05 10:05:17;;;;;;;1999.90;999.90;;;35.50;71.70;;;;;;5013019;28;20042;-75
2022/08/05 10:07:53;;;;;;;1999.90;999.90;;;35.60;69.90;;;;;;5014814;28;20108;-74
2022/08/05 10:10:23;;;;;;;1999.90;999.90;;;35.00;70.00;;;;;;5014663;28;20091;-74
2022/08/05 10:12:54;;;;;;;1999.90;999.90;;;34.70;69.80;;;;;;5005385;28;20548;-69
2022/08/05 10:15:56;;;;;;;1999.90;999.90;;;34.60;71.10;;;;;;5014417;28;20161;-69
2022/08/05 10:18:24;;;;;;;1999.90;999.90;;;34.70;70.40;;;;;;5012567;28;20517;-75
2022/08/05 10:20:56;;;;;;;1999.90;999.90;;;35.00;69.70;;;;;;5014359;28;20578;-73
2022/08/05 10:23:31;;;;;;;1999.90;999.90;;;35.00;70.20;;;;;;5014535;28;20045;-75
2022/08/05 10:26:00;;;;;;;1999.90;999.90;;;34.40;70.50;;;;;;5014741;28;20022;-75
2022/08/05 10:28:27;;;;;;;1999.90;999.90;;;34.90;70.50;;;;;;5012812;28;20374;-69
2022/08/05 10:30:54;;;;;;;1999.90;999.90;;;35.00;70.20;;;;;;5014042;28;20101;-68
2022/08/05 10:33:22;;;;;;;1999.90;999.90;;;35.00;69.50;;;;;;5014240;28;20116;-73
2022/08/05 10:35:49;;;;;;;1999.90;999.90;;;35.30;69.80;;;;;;5005155;28;20400;-73
2022/08/05 10:38:17;;;;;;;1999.90;999.90;;;34.90;69.80;;;;;;5014649;28;20366;-73
2022/08/05 10:40:48;;;;;;;1999.90;999.90;;;35.30;69.90;;;;;;5014150;28;20485;-68
2022/08/05 10:43:44;;;;;;;1999.90;999.90;;;35.30;69.30;;;;;;5014057;28;20061;-74
2022/08/05 10:46:12;;;;;;;1999.90;999.90;;;35.10;70.50;;;;;;5014110;28;20378;-73
2022/08/05 10:48:40;;;;;;;1999.90;999.90;;;35.50;70.30;;;;;;5013835;28;20543;-73
2022/08/05 10:51:13;;;;;;;1999.90;999.90;;;34.70;69.40;;;;;;5013973;28;20034;-75
2022/08/05 10:53:50;;;;;;;1999.90;999.90;;;34.70;70.60;;;;;;5014341;28;20120;-69
2022/08/05 10:56:26;;;;;;;1999.90;999.90;;;35.00;70.50;;;;;;5013805;28;20053;-73
2022/08/05 10:58:57;;;;;;;1999.90;999.90;;;35.60;69.00;;;;;;5013677;28;20057;-72
2022/08/05 11:01:38;;;;;;;1999.90;999.90;;;35.10;69.00;;;;;;5013107;28;20148;-76
2022/08/05 11:04:13;;;;;;;1999.90;999.90;;;35.30;69.70;;;;;;5012420;28;20559;-74
2022/08/05 11:07:00;;;;;;;1999.90;999.90;;;35.10;69.60;;;;;;5011420;28;20053;-68
2022/08/05 11:09:45;;;;;;;1999.90;999.90;;;35.00;69.70;;;;;;5013207;28;20033;-73
2022/08/05 11:12:23;;;;;;;1999.90;999.90;;;34.50;69.00;;;;;;5013334;28;20034;-73
2022/08/05 11:15:07;;;;;;;1999.90;999.90;;;34.80;69.30;;;;;;5013511;28;20401;-72
2022/08/05 11:17:37;;;;;;;1999.90;999.90;;;35.30;68.70;;;;;;5013523;28;20026;-68
2022/08/05 11:20:04;;;;;;;1999.90;999.90;;;35.60;69.30;;;;;;5012870;28;20076;-68
2022/08/05 11:22:40;;;;;;;1999.90;999.90;;;35.10;69.00;;;;;;5012977;28;20029;-73
2022/08/05 11:25:37;;;;;;;1999.90;999.90;;;34.90;69.60;;;;;;5013319;28;20076;-73
2022/08/05 11:28:12;;;;;;;1999.90;999.90;;;35.10;69.60;;;;;;5012559;28;20400;-73
2022/08/05 11:31:02;;;;;;;1999.90;999.90;;;35.10;70.40;;;;;;5013300;28;20033;-73
2022/08/05 11:33:38;;;;;;;1999.90;999.90;;;35.20;69.70;;;;;;5005646;28;20026;-69
2022/08/05 11:36:07;;;;;;;1999.90;999.90;;;35.00;70.10;;;;;;5012885;28;20041;-73
2022/08/05 11:38:41;;;;;;;1999.90;999.90;;;34.10;70.40;;;;;;5008542;28;20033;-73
2022/08/05 11:41:21;;;;;;;1999.90;999.90;;;32.70;70.80;;;;;;5012417;28;20512;-73
2022/08/05 11:43:54;;;;;;;1999.90;999.90;;;32.50;71.90;;;;;;5013023;28;20449;-69
2022/08/05 11:46:30;;;;;;;1999.90;999.90;;;32.80;70.90;;;;;;5006338;28;20021;-69
2022/08/05 11:48:57;;;;;;;1999.90;999.90;;;32.50;71.30;;;;;;5012674;28;20037;-75
2022/08/05 11:51:24;;;;;;;1999.90;999.90;;;32.70;72.30;;;;;;5012922;28;20038;-75
2022/08/05 11:53:50;;;;;;;1999.90;999.90;;;32.70;71.90;;;;;;5013332;28;20030;-70
2022/08/05 11:56:16;;;;;;;1999.90;999.90;;;32.40;72.30;;;;;;5013255;28;20037;-75
2022/08/05 11:58:43;;;;;;;1999.90;999.90;;;32.40;72.30;;;;;;5012606;28;20424;-70
2022/08/05 12:01:10;;;;;;;1999.90;999.90;;;31.90;71.80;;;;;;5011932;28;20107;-75
2022/08/05 12:03:53;;;;;;;1999.90;999.90;;;31.60;73.10;;;;;;5009315;28;20029;-76
2022/08/05 12:06:21;;;;;;;1999.90;999.90;;;31.70;72.40;;;;;;5010083;28;20026;-75
2022/08/05 12:08:50;;;;;;;1999.90;999.90;;;31.90;72.60;;;;;;5012507;28;20473;-76
2022/08/05 12:11:27;;;;;;;1999.90;999.90;;;32.10;73.20;;;;;;5004494;28;20026;-70